Space — ZCTI8 — position and weather

sailwx.info

Track history (hours):
 
Tides and Currents Weather Stations Pressure Air Temp Water Temp Dewpoint Dewpoint Depression Visibility Wind Speed Wind Dir Waves Ship Positions

Space

Last reported at 2017-Apr-30 01:05 UTC. Time now 2017-Apr-30 22:34 UTC.
Position N 43°18' E 006°43'.

Length 45 m; draft 2.7 m.

Type: Pleasure craft. MMSI: 319917000.

Date/timePositionNaut miles runAvg speedWind from/ knotsBaromVisibWave heightAir tempDewpointWater temp
2017-Apr-30 01:05N 43°18' E 006°43'212.9
2017-Apr-30 00:56N 43°19' E 006°45'713.3
2017-Apr-30 00:24N 43°22' E 006°54'513.3
2017-Apr-30 00:00N 43°25' E 007°00'713.2
2017-Apr-29 23:31N 43°28' E 007°08'713.4
2017-Apr-29 23:00N 43°33' E 007°14'713.4
2017-Apr-29 22:30N 43°38' E 007°20'713.1
2017-Apr-29 22:00N 43°43' E 007°26'1 0.3
2017-Apr-29 18:07N 43°45' E 007°26'0 0.0
2017-Apr-29 17:58N 43°45' E 007°26'2 0.2
2017-Apr-29 08:54N 43°43' E 007°25'4 0.3
2017-Apr-28 18:21N 43°40' E 007°20'514.0
2017-Apr-28 18:00N 43°39' E 007°14'2 4.7
2017-Apr-28 17:28N 43°39' E 007°11'0 0.1
2017-Apr-28 16:55N 43°39' E 007°11'0 0.1
2017-Apr-28 16:10N 43°39' E 007°11'0 0.1
2017-Apr-28 15:55N 43°39' E 007°11'0 0.1
2017-Apr-28 15:30N 43°39' E 007°11'710.7
2017-Apr-28 14:49N 43°32' E 007°08'1 1.6
2017-Apr-28 13:55N 43°34' E 007°07'0 0.0
2017-Apr-28 13:16N 43°34' E 007°07'0 0.0
2017-Apr-28 12:55N 43°34' E 007°07'0 0.0
2017-Apr-28 12:22N 43°34' E 007°07'0 0.0
2017-Apr-28 11:46N 43°34' E 007°07'0 0.0
2017-Apr-28 11:22N 43°34' E 007°07'0 0.0
2017-Apr-28 10:55N 43°34' E 007°07'0 0.0
2017-Apr-28 10:01N 43°34' E 007°07'0 0.0
2017-Apr-28 09:43N 43°34' E 007°07'0 0.0
2017-Apr-28 09:20N 43°34' E 007°07'  
Track history (hours):
 
Tides and Currents Weather Stations Pressure Air Temp Water Temp Dewpoint Dewpoint Depression Visibility Wind Speed Wind Dir Waves Ship Positions

Space

Last reported at 2017-Apr-30 01:05 UTC. Time now 2017-Apr-30 22:34 UTC.
Position N 43°18' E 006°43'.

Length 45 m; draft 2.7 m.

Type: Pleasure craft. MMSI: 319917000.

Date/timePositionNaut miles runAvg speedWind from/ knotsBaromVisibWave heightAir tempDewpointWater temp
2017-Apr-30 01:05N 43°18' E 006°43'212.9
2017-Apr-30 00:56N 43°19' E 006°45'713.3
2017-Apr-30 00:24N 43°22' E 006°54'513.3
2017-Apr-30 00:00N 43°25' E 007°00'713.2
2017-Apr-29 23:31N 43°28' E 007°08'713.4
2017-Apr-29 23:00N 43°33' E 007°14'713.4
2017-Apr-29 22:30N 43°38' E 007°20'713.1
2017-Apr-29 22:00N 43°43' E 007°26'1 0.3
2017-Apr-29 18:07N 43°45' E 007°26'0 0.0
2017-Apr-29 17:58N 43°45' E 007°26'2 0.2
2017-Apr-29 08:54N 43°43' E 007°25'4 0.3
2017-Apr-28 18:21N 43°40' E 007°20'514.0
2017-Apr-28 18:00N 43°39' E 007°14'2 4.7
2017-Apr-28 17:28N 43°39' E 007°11'0 0.1
2017-Apr-28 16:55N 43°39' E 007°11'0 0.1
2017-Apr-28 16:10N 43°39' E 007°11'0 0.1
2017-Apr-28 15:55N 43°39' E 007°11'0 0.1
2017-Apr-28 15:30N 43°39' E 007°11'710.7
2017-Apr-28 14:49N 43°32' E 007°08'1 1.6
2017-Apr-28 13:55N 43°34' E 007°07'0 0.0
2017-Apr-28 13:16N 43°34' E 007°07'0 0.0
2017-Apr-28 12:55N 43°34' E 007°07'0 0.0
2017-Apr-28 12:22N 43°34' E 007°07'0 0.0
2017-Apr-28 11:46N 43°34' E 007°07'0 0.0
2017-Apr-28 11:22N 43°34' E 007°07'0 0.0
2017-Apr-28 10:55N 43°34' E 007°07'0 0.0
2017-Apr-28 10:01N 43°34' E 007°07'0 0.0
2017-Apr-28 09:43N 43°34' E 007°07'0 0.0
2017-Apr-28 09:20N 43°34' E 007°07'  

Dump ship's entire track history